sensor_id;sensor_type;location;lat;lon;timestamp;P1;durP1;ratioP1;P2;durP2;ratioP2
22814;SDS011;11574;51.058;13.712;2023-11-22T02:07:39;16.87;;;9.13;;
22814;SDS011;11574;51.058;13.712;2023-11-22T03:43:02;21.00;;;10.13;;
22814;SDS011;11574;51.058;13.712;2023-11-22T03:48:05;21.37;;;9.33;;
22814;SDS011;11574;51.058;13.712;2023-11-22T03:53:08;18.00;;;9.63;;
22814;SDS011;11574;51.058;13.712;2023-11-22T03:58:11;24.37;;;11.03;;
22814;SDS011;11574;51.058;13.712;2023-11-22T04:03:13;22.07;;;10.83;;
22814;SDS011;11574;51.058;13.712;2023-11-22T04:08:16;15.07;;;8.63;;
22814;SDS011;11574;51.058;13.712;2023-11-22T04:13:20;16.40;;;8.37;;
22814;SDS011;11574;51.058;13.712;2023-11-22T04:18:24;20.83;;;10.17;;
22814;SDS011;11574;51.058;13.712;2023-11-22T04:23:27;20.83;;;9.73;;
22814;SDS011;11574;51.058;13.712;2023-11-22T04:28:31;16.30;;;9.00;;
22814;SDS011;11574;51.058;13.712;2023-11-22T04:33:33;19.20;;;9.57;;
22814;SDS011;11574;51.058;13.712;2023-11-22T04:38:36;17.43;;;8.57;;
22814;SDS011;11574;51.058;13.712;2023-11-22T04:43:39;19.80;;;9.87;;
22814;SDS011;11574;51.058;13.712;2023-11-22T04:48:42;18.00;;;8.93;;
22814;SDS011;11574;51.058;13.712;2023-11-22T04:53:45;15.10;;;9.33;;
22814;SDS011;11574;51.058;13.712;2023-11-22T04:58:48;17.37;;;9.50;;
22814;SDS011;11574;51.058;13.712;2023-11-22T05:03:50;19.13;;;9.83;;
22814;SDS011;11574;51.058;13.712;2023-11-22T05:08:53;22.10;;;9.67;;
22814;SDS011;11574;51.058;13.712;2023-11-22T05:13:57;20.30;;;10.00;;
22814;SDS011;11574;51.058;13.712;2023-11-22T05:18:59;18.90;;;9.97;;
22814;SDS011;11574;51.058;13.712;2023-11-22T05:24:02;18.13;;;9.87;;
22814;SDS011;11574;51.058;13.712;2023-11-22T05:29:05;24.27;;;11.17;;
22814;SDS011;11574;51.058;13.712;2023-11-22T05:34:08;17.87;;;9.47;;
22814;SDS011;11574;51.058;13.712;2023-11-22T05:39:10;18.00;;;9.77;;
22814;SDS011;11574;51.058;13.712;2023-11-22T05:44:14;19.37;;;10.20;;
22814;SDS011;11574;51.058;13.712;2023-11-22T05:49:16;20.63;;;11.00;;
22814;SDS011;11574;51.058;13.712;2023-11-22T05:54:18;20.97;;;9.77;;
22814;SDS011;11574;51.058;13.712;2023-11-22T05:59:22;18.43;;;10.13;;
22814;SDS011;11574;51.058;13.712;2023-11-22T06:04:24;19.30;;;9.67;;
22814;SDS011;11574;51.058;13.712;2023-11-22T06:09:27;17.70;;;10.03;;
22814;SDS011;11574;51.058;13.712;2023-11-22T06:14:30;19.73;;;11.17;;
22814;SDS011;11574;51.058;13.712;2023-11-22T06:19:32;19.93;;;10.10;;
22814;SDS011;11574;51.058;13.712;2023-11-22T06:24:35;21.00;;;10.37;;
22814;SDS011;11574;51.058;13.712;2023-11-22T06:29:38;18.83;;;10.40;;
22814;SDS011;11574;51.058;13.712;2023-11-22T06:34:42;19.50;;;9.40;;
22814;SDS011;11574;51.058;13.712;2023-11-22T06:39:44;22.70;;;11.37;;
22814;SDS011;11574;51.058;13.712;2023-11-22T06:44:48;19.37;;;10.37;;
22814;SDS011;11574;51.058;13.712;2023-11-22T06:49:50;22.53;;;10.77;;
22814;SDS011;11574;51.058;13.712;2023-11-22T06:54:53;24.60;;;10.73;;
22814;SDS011;11574;51.058;13.712;2023-11-22T06:59:56;23.70;;;12.63;;
22814;SDS011;11574;51.058;13.712;2023-11-22T07:04:59;24.33;;;11.07;;
22814;SDS011;11574;51.058;13.712;2023-11-22T07:10:01;22.90;;;11.60;;
22814;SDS011;11574;51.058;13.712;2023-11-22T07:15:07;27.37;;;12.20;;
22814;SDS011;11574;51.058;13.712;2023-11-22T07:20:10;26.70;;;11.60;;
22814;SDS011;11574;51.058;13.712;2023-11-22T07:25:16;22.43;;;11.43;;
22814;SDS011;11574;51.058;13.712;2023-11-22T07:30:20;24.50;;;12.17;;
22814;SDS011;11574;51.058;13.712;2023-11-22T07:35:23;23.93;;;11.67;;
22814;SDS011;11574;51.058;13.712;2023-11-22T07:40:25;24.23;;;11.07;;
22814;SDS011;11574;51.058;13.712;2023-11-22T07:45:29;20.40;;;11.17;;
22814;SDS011;11574;51.058;13.712;2023-11-22T07:50:31;21.13;;;11.73;;
22814;SDS011;11574;51.058;13.712;2023-11-22T07:55:34;23.87;;;11.77;;
22814;SDS011;11574;51.058;13.712;2023-11-22T08:00:40;20.87;;;11.37;;
22814;SDS011;11574;51.058;13.712;2023-11-22T08:05:42;19.90;;;9.97;;
22814;SDS011;11574;51.058;13.712;2023-11-22T08:10:48;19.13;;;10.10;;
22814;SDS011;11574;51.058;13.712;2023-11-22T08:15:54;21.93;;;10.43;;
22814;SDS011;11574;51.058;13.712;2023-11-22T08:20:57;21.83;;;10.67;;
22814;SDS011;11574;51.058;13.712;2023-11-22T08:26:00;16.87;;;10.10;;
22814;SDS011;11574;51.058;13.712;2023-11-22T08:31:04;17.13;;;9.43;;
22814;SDS011;11574;51.058;13.712;2023-11-22T08:36:09;23.17;;;10.60;;
22814;SDS011;11574;51.058;13.712;2023-11-22T08:41:11;26.30;;;10.80;;
22814;SDS011;11574;51.058;13.712;2023-11-22T08:46:15;29.93;;;12.77;;
22814;SDS011;11574;51.058;13.712;2023-11-22T08:51:18;23.27;;;11.60;;
22814;SDS011;11574;51.058;13.712;2023-11-22T08:56:20;22.33;;;12.23;;
22814;SDS011;11574;51.058;13.712;2023-11-22T09:01:24;22.47;;;11.27;;
22814;SDS011;11574;51.058;13.712;2023-11-22T09:06:26;22.67;;;11.00;;
22814;SDS011;11574;51.058;13.712;2023-11-22T09:11:29;26.23;;;11.97;;
22814;SDS011;11574;51.058;13.712;2023-11-22T09:16:37;23.47;;;11.03;;
22814;SDS011;11574;51.058;13.712;2023-11-22T09:21:39;19.13;;;10.63;;
22814;SDS011;11574;51.058;13.712;2023-11-22T09:26:42;20.30;;;10.10;;
22814;SDS011;11574;51.058;13.712;2023-11-22T09:31:45;20.20;;;10.50;;
22814;SDS011;11574;51.058;13.712;2023-11-22T09:36:48;19.17;;;10.03;;
22814;SDS011;11574;51.058;13.712;2023-11-22T09:41:50;21.80;;;10.90;;
22814;SDS011;11574;51.058;13.712;2023-11-22T09:46:54;27.57;;;10.43;;
22814;SDS011;11574;51.058;13.712;2023-11-22T09:51:57;20.10;;;9.77;;
22814;SDS011;11574;51.058;13.712;2023-11-22T09:57:04;24.03;;;10.27;;
22814;SDS011;11574;51.058;13.712;2023-11-22T10:02:10;23.10;;;10.30;;
22814;SDS011;11574;51.058;13.712;2023-11-22T10:07:14;19.97;;;10.30;;
22814;SDS011;11574;51.058;13.712;2023-11-22T10:12:18;17.03;;;8.97;;
22814;SDS011;11574;51.058;13.712;2023-11-22T10:17:25;19.00;;;9.63;;
22814;SDS011;11574;51.058;13.712;2023-11-22T10:22:27;18.43;;;9.30;;
22814;SDS011;11574;51.058;13.712;2023-11-22T10:27:29;19.73;;;9.73;;
22814;SDS011;11574;51.058;13.712;2023-11-22T10:32:38;19.83;;;9.63;;
22814;SDS011;11574;51.058;13.712;2023-11-22T10:37:41;17.80;;;9.30;;
22814;SDS011;11574;51.058;13.712;2023-11-22T10:42:45;15.87;;;8.23;;
22814;SDS011;11574;51.058;13.712;2023-11-22T10:47:53;18.77;;;8.17;;
22814;SDS011;11574;51.058;13.712;2023-11-22T10:52:56;14.50;;;8.33;;
22814;SDS011;11574;51.058;13.712;2023-11-22T10:58:01;13.23;;;7.83;;
22814;SDS011;11574;51.058;13.712;2023-11-22T11:03:07;16.57;;;8.03;;
22814;SDS011;11574;51.058;13.712;2023-11-22T11:08:11;19.00;;;8.40;;
22814;SDS011;11574;51.058;13.712;2023-11-22T11:13:16;17.50;;;8.50;;
22814;SDS011;11574;51.058;13.712;2023-11-22T11:18:26;16.87;;;8.80;;
22814;SDS011;11574;51.058;13.712;2023-11-22T11:23:39;13.80;;;7.37;;
22814;SDS011;11574;51.058;13.712;2023-11-22T11:29:00;15.00;;;7.40;;
22814;SDS011;11574;51.058;13.712;2023-11-22T11:34:14;13.53;;;6.93;;
22814;SDS011;11574;51.058;13.712;2023-11-22T11:40:08;14.73;;;7.50;;
22814;SDS011;11574;51.058;13.712;2023-11-22T11:45:35;12.90;;;7.00;;
22814;SDS011;11574;51.058;13.712;2023-11-22T11:50:38;12.63;;;6.50;;
22814;SDS011;11574;51.058;13.712;2023-11-22T11:55:41;14.50;;;6.80;;
22814;SDS011;11574;51.058;13.712;2023-11-22T12:00:45;12.60;;;7.33;;
22814;SDS011;11574;51.058;13.712;2023-11-22T12:05:49;11.50;;;6.60;;
22814;SDS011;11574;51.058;13.712;2023-11-22T12:10:57;11.83;;;6.37;;
22814;SDS011;11574;51.058;13.712;2023-11-22T12:16:00;12.30;;;6.40;;
22814;SDS011;11574;51.058;13.712;2023-11-22T12:21:07;13.60;;;6.33;;
22814;SDS011;11574;51.058;13.712;2023-11-22T12:26:11;11.27;;;5.87;;
22814;SDS011;11574;51.058;13.712;2023-11-22T12:31:14;9.20;;;5.40;;
22814;SDS011;11574;51.058;13.712;2023-11-22T12:41:44;11.13;;;6.10;;
22814;SDS011;11574;51.058;13.712;2023-11-22T12:47:18;11.83;;;5.63;;
22814;SDS011;11574;51.058;13.712;2023-11-22T12:58:15;11.40;;;5.53;;
22814;SDS011;11574;51.058;13.712;2023-11-22T13:03:33;10.33;;;5.40;;
22814;SDS011;11574;51.058;13.712;2023-11-22T13:08:47;12.23;;;5.63;;
22814;SDS011;11574;51.058;13.712;2023-11-22T13:13:51;11.70;;;5.77;;
22814;SDS011;11574;51.058;13.712;2023-11-22T13:18:53;11.63;;;5.93;;
22814;SDS011;11574;51.058;13.712;2023-11-22T13:23:56;10.10;;;5.47;;
22814;SDS011;11574;51.058;13.712;2023-11-22T13:29:01;14.77;;;6.30;;
22814;SDS011;11574;51.058;13.712;2023-11-22T13:34:03;13.20;;;6.40;;
22814;SDS011;11574;51.058;13.712;2023-11-22T13:39:06;11.87;;;6.00;;
22814;SDS011;11574;51.058;13.712;2023-11-22T13:44:09;10.07;;;5.87;;
22814;SDS011;11574;51.058;13.712;2023-11-22T13:49:20;14.43;;;6.50;;
22814;SDS011;11574;51.058;13.712;2023-11-22T13:54:39;12.80;;;7.07;;
22814;SDS011;11574;51.058;13.712;2023-11-22T13:59:43;16.40;;;6.17;;
22814;SDS011;11574;51.058;13.712;2023-11-22T14:04:46;13.47;;;6.30;;
22814;SDS011;11574;51.058;13.712;2023-11-22T14:09:48;11.33;;;6.50;;
22814;SDS011;11574;51.058;13.712;2023-11-22T14:14:51;11.77;;;5.70;;
22814;SDS011;11574;51.058;13.712;2023-11-22T14:19:54;11.80;;;6.20;;
22814;SDS011;11574;51.058;13.712;2023-11-22T14:24:58;15.60;;;7.83;;
22814;SDS011;11574;51.058;13.712;2023-11-22T14:30:02;16.23;;;7.90;;
22814;SDS011;11574;51.058;13.712;2023-11-22T16:05:28;13.73;;;8.03;;
22814;SDS011;11574;51.058;13.712;2023-11-22T16:10:31;13.40;;;7.80;;
22814;SDS011;11574;51.058;13.712;2023-11-22T19:16:14;26.40;;;13.97;;
22814;SDS011;11574;51.058;13.712;2023-11-22T19:21:16;22.50;;;12.27;;
22814;SDS011;11574;51.058;13.712;2023-11-22T19:26:19;25.47;;;13.87;;
22814;SDS011;11574;51.058;13.712;2023-11-22T19:31:23;26.77;;;12.63;;
22814;SDS011;11574;51.058;13.712;2023-11-22T19:36:27;51.33;;;21.33;;
22814;SDS011;11574;51.058;13.712;2023-11-22T19:41:30;29.43;;;14.13;;
22814;SDS011;11574;51.058;13.712;2023-11-22T19:46:34;26.73;;;13.17;;
22814;SDS011;11574;51.058;13.712;2023-11-22T19:51:36;34.27;;;13.57;;
22814;SDS011;11574;51.058;13.712;2023-11-22T19:56:39;24.53;;;12.57;;
22814;SDS011;11574;51.058;13.712;2023-11-22T20:01:43;26.00;;;12.73;;
22814;SDS011;11574;51.058;13.712;2023-11-22T20:06:45;33.47;;;15.00;;
22814;SDS011;11574;51.058;13.712;2023-11-22T20:11:48;29.97;;;13.50;;
22814;SDS011;11574;51.058;13.712;2023-11-22T20:16:51;28.70;;;13.93;;
22814;SDS011;11574;51.058;13.712;2023-11-22T20:21:54;22.80;;;11.87;;
22814;SDS011;11574;51.058;13.712;2023-11-22T20:26:56;22.87;;;11.83;;
22814;SDS011;11574;51.058;13.712;2023-11-22T20:32:01;20.53;;;10.83;;
22814;SDS011;11574;51.058;13.712;2023-11-22T20:37:04;20.00;;;10.90;;
22814;SDS011;11574;51.058;13.712;2023-11-22T20:42:06;19.73;;;10.67;;
22814;SDS011;11574;51.058;13.712;2023-11-22T20:47:10;18.40;;;10.40;;
22814;SDS011;11574;51.058;13.712;2023-11-22T20:52:12;21.87;;;10.70;;
22814;SDS011;11574;51.058;13.712;2023-11-22T20:57:15;20.77;;;10.87;;
22814;SDS011;11574;51.058;13.712;2023-11-22T21:02:22;20.67;;;10.87;;
22814;SDS011;11574;51.058;13.712;2023-11-22T21:07:24;22.00;;;10.37;;
22814;SDS011;11574;51.058;13.712;2023-11-22T21:12:26;18.43;;;10.90;;
22814;SDS011;11574;51.058;13.712;2023-11-22T21:17:30;23.17;;;10.20;;
22814;SDS011;11574;51.058;13.712;2023-11-22T21:22:33;18.67;;;9.77;;
22814;SDS011;11574;51.058;13.712;2023-11-22T21:27:35;20.03;;;10.27;;
22814;SDS011;11574;51.058;13.712;2023-11-22T21:32:41;24.23;;;12.33;;
22814;SDS011;11574;51.058;13.712;2023-11-22T21:37:45;21.10;;;9.67;;
22814;SDS011;11574;51.058;13.712;2023-11-22T21:42:52;17.27;;;9.10;;
22814;SDS011;11574;51.058;13.712;2023-11-22T21:47:55;16.10;;;8.87;;
22814;SDS011;11574;51.058;13.712;2023-11-22T21:52:58;17.63;;;7.83;;
22814;SDS011;11574;51.058;13.712;2023-11-22T21:58:00;17.57;;;8.13;;
22814;SDS011;11574;51.058;13.712;2023-11-22T22:03:04;16.93;;;8.23;;
22814;SDS011;11574;51.058;13.712;2023-11-22T22:08:06;15.03;;;7.80;;
22814;SDS011;11574;51.058;13.712;2023-11-22T22:13:09;13.40;;;7.30;;
22814;SDS011;11574;51.058;13.712;2023-11-22T22:18:13;18.27;;;9.70;;
22814;SDS011;11574;51.058;13.712;2023-11-22T22:23:16;10.87;;;6.60;;
22814;SDS011;11574;51.058;13.712;2023-11-22T22:28:19;11.93;;;6.07;;
22814;SDS011;11574;51.058;13.712;2023-11-22T22:33:28;11.97;;;6.47;;
22814;SDS011;11574;51.058;13.712;2023-11-22T22:38:30;11.33;;;5.87;;
22814;SDS011;11574;51.058;13.712;2023-11-22T22:43:34;9.80;;;5.77;;
22814;SDS011;11574;51.058;13.712;2023-11-22T22:48:37;9.90;;;5.37;;
22814;SDS011;11574;51.058;13.712;2023-11-22T22:53:40;11.67;;;5.70;;
22814;SDS011;11574;51.058;13.712;2023-11-22T22:58:42;11.13;;;6.27;;
22814;SDS011;11574;51.058;13.712;2023-11-22T23:03:47;13.13;;;5.73;;
22814;SDS011;11574;51.058;13.712;2023-11-22T23:08:49;10.23;;;5.30;;
22814;SDS011;11574;51.058;13.712;2023-11-22T23:13:52;10.27;;;5.53;;
22814;SDS011;11574;51.058;13.712;2023-11-22T23:18:56;9.83;;;5.47;;
22814;SDS011;11574;51.058;13.712;2023-11-22T23:23:58;12.17;;;5.83;;
22814;SDS011;11574;51.058;13.712;2023-11-22T23:29:01;7.80;;;4.80;;
22814;SDS011;11574;51.058;13.712;2023-11-22T23:34:04;7.97;;;4.67;;
22814;SDS011;11574;51.058;13.712;2023-11-22T23:39:07;8.00;;;4.23;;
22814;SDS011;11574;51.058;13.712;2023-11-22T23:44:10;8.80;;;5.13;;
22814;SDS011;11574;51.058;13.712;2023-11-22T23:49:14;7.10;;;4.77;;
22814;SDS011;11574;51.058;13.712;2023-11-22T23:54:17;10.07;;;4.30;;
22814;SDS011;11574;51.058;13.712;2023-11-22T23:59:19;8.57;;;4.50;;
